createdAt,value
2022-10-23T00:01:20.113Z,100776.34
2022-10-23T00:03:47.776Z,100775.38
2022-10-23T00:06:16.788Z,100768.72
2022-10-23T00:08:44.378Z,100766.28
2022-10-23T00:11:12.211Z,100765.88
2022-10-23T00:13:39.818Z,100767.56
2022-10-23T00:16:07.765Z,100763.78
2022-10-23T00:18:35.532Z,100767.59
2022-10-23T00:21:03.172Z,100756.59
2022-10-23T00:23:31.973Z,100766.00
2022-10-23T00:26:00.180Z,100762.81
2022-10-23T00:28:27.836Z,100768.41
2022-10-23T00:30:55.310Z,100768.63
2022-10-23T00:33:22.746Z,100767.50
2022-10-23T00:35:50.232Z,100763.53
2022-10-23T00:38:17.669Z,100765.91
2022-10-23T00:40:47.137Z,100764.72
2022-10-23T00:43:18.296Z,100770.78
2022-10-23T00:45:45.731Z,100769.75
2022-10-23T00:48:13.512Z,100776.13
2022-10-23T00:50:41.005Z,100774.38
2022-10-23T00:53:08.712Z,100780.88
2022-10-23T00:55:36.246Z,100779.69
2022-10-23T00:58:05.083Z,100784.53
2022-10-23T01:00:33.301Z,100775.09
2022-10-23T01:03:00.746Z,100762.41
2022-10-23T01:05:28.836Z,100772.28
2022-10-23T01:07:57.521Z,100762.00
2022-10-23T01:10:27.304Z,100762.88
2022-10-23T01:12:56.576Z,100764.72
2022-10-23T01:15:27.606Z,100758.31
2022-10-23T01:17:56.639Z,100749.50
2022-10-23T01:20:27.557Z,100740.91
2022-10-23T01:23:06.928Z,100753.59
2022-10-23T01:25:38.254Z,100742.31
2022-10-23T01:28:07.423Z,100740.03
2022-10-23T01:30:34.959Z,100749.94
2022-10-23T01:33:02.917Z,100756.91
2022-10-23T01:35:30.980Z,100750.34
2022-10-23T01:38:02.385Z,100746.88
2022-10-23T01:40:31.381Z,100752.63
2022-10-23T01:42:59.451Z,100746.88
2022-10-23T01:45:29.045Z,100740.31
2022-10-23T01:47:56.543Z,100737.97
2022-10-23T01:50:24.046Z,100739.00
2022-10-23T01:52:51.618Z,100732.22
2022-10-23T01:55:19.544Z,100733.47
2022-10-23T01:57:47.031Z,100724.19
2022-10-23T02:00:15.736Z,100723.88
2022-10-23T02:02:44.541Z,100733.53
2022-10-23T02:05:13.428Z,100727.06
2022-10-23T02:07:41.130Z,100727.31
2022-10-23T02:10:09.423Z,100737.91
2022-10-23T02:12:38.921Z,100724.34
2022-10-23T02:15:08.040Z,100709.94
2022-10-23T02:17:39.236Z,100721.97
2022-10-23T02:20:10.435Z,100714.59
2022-10-23T02:22:38.209Z,100706.78
2022-10-23T02:25:06.692Z,100718.22
2022-10-23T02:27:35.613Z,100704.47
2022-10-23T02:30:04.913Z,100699.59
2022-10-23T02:32:32.404Z,100696.59
2022-10-23T02:34:59.866Z,100692.34
2022-10-23T02:37:28.864Z,100701.25
2022-10-23T02:39:56.325Z,100690.63
2022-10-23T02:42:25.297Z,100688.38
2022-10-23T02:44:56.972Z,100697.81
2022-10-23T02:47:35.768Z,100686.38
2022-10-23T02:50:05.208Z,100680.63
2022-10-23T02:52:35.781Z,100678.75
2022-10-23T02:55:06.598Z,100677.94
2022-10-23T02:57:34.562Z,100664.75
2022-10-23T03:00:03.308Z,100653.69
2022-10-23T03:05:04.318Z,100662.09
2022-10-23T03:07:31.815Z,100656.28
2022-10-23T03:10:00.644Z,100663.03
2022-10-23T03:12:28.116Z,100660.75
2022-10-23T03:14:55.580Z,100658.50
2022-10-23T03:17:23.049Z,100663.06
2022-10-23T03:19:50.554Z,100655.63
2022-10-23T03:22:18.000Z,100664.75
2022-10-23T03:24:45.455Z,100654.22
2022-10-23T03:27:14.770Z,100653.16
2022-10-23T03:29:42.270Z,100652.72
2022-10-23T03:32:09.815Z,100656.00
2022-10-23T03:34:37.248Z,100650.34
2022-10-23T03:37:04.739Z,100652.94
2022-10-23T03:39:32.201Z,100662.84
2022-10-23T03:41:59.775Z,100649.22
2022-10-23T03:44:31.035Z,100649.34
2022-10-23T03:46:58.565Z,100652.59
2022-10-23T03:49:26.048Z,100654.16
2022-10-23T03:51:53.493Z,100644.44
2022-10-23T03:54:21.997Z,100636.81
2022-10-23T03:56:52.448Z,100634.19
2022-10-23T03:59:22.554Z,100628.78
2022-10-23T04:01:51.484Z,100620.00
2022-10-23T04:04:19.193Z,100623.69
2022-10-23T04:06:46.657Z,100620.91
2022-10-23T04:09:14.212Z,100634.38
2022-10-23T04:11:41.675Z,100628.34
2022-10-23T04:14:09.132Z,100620.16
2022-10-23T04:16:36.584Z,100633.63
2022-10-23T04:19:05.390Z,100630.13
2022-10-23T04:21:32.869Z,100639.81
2022-10-23T04:24:00.338Z,100637.25
2022-10-23T04:26:27.783Z,100634.91
2022-10-23T04:28:55.260Z,100629.63
2022-10-23T04:31:22.736Z,100628.53
2022-10-23T04:33:50.198Z,100627.03
2022-10-23T04:36:19.020Z,100634.25
2022-10-23T04:38:47.829Z,100615.63
2022-10-23T04:41:15.295Z,100620.91
2022-10-23T04:43:42.754Z,100620.25
2022-10-23T04:46:10.325Z,100610.19
2022-10-23T04:48:37.806Z,100608.50
2022-10-23T04:51:06.622Z,100607.59
2022-10-23T04:53:35.424Z,100600.13
2022-10-23T04:56:02.901Z,100614.66
2022-10-23T04:58:30.632Z,100602.38
2022-10-23T05:00:58.301Z,100607.44
2022-10-23T05:03:26.149Z,100606.31
2022-10-23T05:05:54.084Z,100609.72
2022-10-23T05:08:21.662Z,100605.34
2022-10-23T05:10:50.614Z,100598.88
2022-10-23T05:13:19.699Z,100600.84
2022-10-23T05:15:48.026Z,100590.22
2022-10-23T05:18:16.690Z,100595.06
2022-10-23T05:20:44.153Z,100595.19
2022-10-23T05:23:11.706Z,100594.41
2022-10-23T05:25:39.148Z,100585.53
2022-10-23T05:28:08.002Z,100583.72
2022-10-23T05:30:35.469Z,100589.34
2022-10-23T05:33:02.959Z,100582.78
2022-10-23T05:35:30.498Z,100579.81
2022-10-23T05:37:58.059Z,100576.00
2022-10-23T05:40:25.638Z,100564.44
2022-10-23T05:42:53.128Z,100562.19
2022-10-23T05:45:22.103Z,100570.84
2022-10-23T05:47:50.125Z,100564.66
2022-10-23T05:50:17.681Z,100567.31
2022-10-23T05:52:46.977Z,100555.88
2022-10-23T05:55:14.475Z,100567.28
2022-10-23T05:57:42.373Z,100569.34
2022-10-23T06:00:10.730Z,100563.50
2022-10-23T06:02:39.574Z,100553.38
2022-10-23T06:05:07.245Z,100553.59
2022-10-23T06:07:35.935Z,100564.84
2022-10-23T06:10:03.663Z,100547.25
2022-10-23T06:12:32.013Z,100555.25
2022-10-23T06:14:59.554Z,100558.25
2022-10-23T06:17:27.089Z,100559.88
2022-10-23T06:20:00.724Z,100549.88
2022-10-23T06:22:28.353Z,100544.69
2022-10-23T06:24:55.914Z,100556.53
2022-10-23T06:27:23.523Z,100541.41
2022-10-23T06:29:50.997Z,100551.53
2022-10-23T06:32:18.473Z,100556.22
2022-10-23T06:34:45.933Z,100565.38
2022-10-23T06:37:14.749Z,100552.06
2022-10-23T06:39:42.221Z,100550.03
2022-10-23T06:42:09.736Z,100557.22
2022-10-23T06:44:37.223Z,100551.22
2022-10-23T06:47:05.045Z,100544.41
2022-10-23T06:49:32.498Z,100553.47
2022-10-23T06:51:59.961Z,100565.47
2022-10-23T06:54:28.756Z,100562.03
2022-10-23T06:56:56.216Z,100567.28
2022-10-23T06:59:23.668Z,100554.00
2022-10-23T07:01:51.361Z,100559.00
2022-10-23T07:04:19.040Z,100549.41
2022-10-23T07:06:46.550Z,100548.19
2022-10-23T07:09:14.038Z,100546.69
2022-10-23T07:11:42.822Z,100556.84
2022-10-23T07:14:10.261Z,100553.78
2022-10-23T07:16:37.735Z,100539.16
2022-10-23T07:19:06.816Z,100537.06
2022-10-23T07:21:34.889Z,100548.06
2022-10-23T07:24:02.471Z,100547.38
2022-10-23T07:26:30.273Z,100544.69
2022-10-23T07:28:59.149Z,100534.69
2022-10-23T07:31:28.167Z,100512.31
2022-10-23T07:33:55.936Z,100535.53
2022-10-23T07:36:23.405Z,100526.63
2022-10-23T07:38:51.374Z,100516.03
2022-10-23T07:41:18.870Z,100523.94
2022-10-23T07:43:46.353Z,100541.09
2022-10-23T07:46:15.167Z,100527.94
2022-10-23T07:48:42.606Z,100533.47
2022-10-23T07:51:13.244Z,100545.38
2022-10-23T07:53:40.764Z,100530.38
2022-10-23T07:56:11.707Z,100527.22
2022-10-23T07:58:39.147Z,100520.09
2022-10-23T08:01:12.035Z,100514.75
2022-10-23T08:03:40.876Z,100509.38
2022-10-23T08:06:08.393Z,100512.50
2022-10-23T08:08:37.031Z,100498.13
2022-10-23T08:11:04.702Z,100509.47
2022-10-23T08:13:32.180Z,100507.91
2022-10-23T08:16:00.035Z,100500.19
2022-10-23T08:18:28.109Z,100515.66
2022-10-23T08:21:00.972Z,100506.47
2022-10-23T08:23:28.464Z,100510.03
2022-10-23T08:25:57.635Z,100504.88
2022-10-23T08:28:25.106Z,100496.28
2022-10-23T08:30:52.583Z,100495.47
2022-10-23T08:33:20.025Z,100467.47
2022-10-23T08:35:47.624Z,100475.19
2022-10-23T08:38:16.458Z,100480.38
2022-10-23T08:40:44.969Z,100476.25
2022-10-23T08:43:13.917Z,100479.19
2022-10-23T08:45:41.862Z,100479.66
2022-10-23T08:48:11.133Z,100486.59
2022-10-23T08:50:40.392Z,100481.97
2022-10-23T08:53:11.970Z,100476.31
2022-10-23T08:55:41.878Z,100490.53
2022-10-23T08:58:15.025Z,100481.97
2022-10-23T09:00:42.632Z,100475.72
2022-10-23T09:03:10.698Z,100483.19
2022-10-23T09:05:53.909Z,100472.75
2022-10-23T09:08:24.398Z,100471.66
2022-10-23T09:11:06.707Z,100467.56
2022-10-23T09:13:51.876Z,100463.88
2022-10-23T09:16:23.660Z,100460.53
2022-10-23T09:18:51.417Z,100445.91
2022-10-23T09:21:18.881Z,100454.72
2022-10-23T09:23:46.351Z,100454.66
2022-10-23T09:26:14.110Z,100451.59
2022-10-23T09:28:44.269Z,100454.31
2022-10-23T09:31:12.801Z,100430.59
2022-10-23T09:33:41.755Z,100440.28
2022-10-23T09:36:11.069Z,100432.72
2022-10-23T09:38:39.178Z,100438.78
2022-10-23T09:41:07.978Z,100427.13
2022-10-23T09:43:35.454Z,100419.84
2022-10-23T09:46:04.916Z,100409.28
2022-10-23T09:48:32.504Z,100418.31
2022-10-23T09:51:02.022Z,100426.91
2022-10-23T09:53:31.943Z,100421.56
2022-10-23T09:56:00.262Z,100412.81
2022-10-23T09:58:30.766Z,100412.00
2022-10-23T10:00:58.388Z,100398.19
2022-10-23T10:03:26.028Z,100403.16
2022-10-23T10:05:57.872Z,100399.06
2022-10-23T10:08:27.410Z,100383.72
2022-10-23T10:10:55.190Z,100379.81
2022-10-23T10:13:27.612Z,100389.34
2022-10-23T10:15:55.793Z,100403.75
2022-10-23T10:18:25.008Z,100395.16
2022-10-23T10:20:57.190Z,100392.91
2022-10-23T10:23:28.558Z,100386.97
2022-10-23T10:25:58.197Z,100392.03
2022-10-23T10:28:29.483Z,100390.22
2022-10-23T10:30:59.292Z,100390.38
2022-10-23T10:33:28.436Z,100393.81
2022-10-23T10:35:57.632Z,100373.22
2022-10-23T10:38:38.133Z,100383.03
2022-10-23T10:41:20.691Z,100379.00
2022-10-23T10:43:50.532Z,100366.66
2022-10-23T10:46:18.689Z,100356.56
2022-10-23T10:48:47.433Z,100344.09
2022-10-23T10:51:16.638Z,100354.28
2022-10-23T10:53:47.828Z,100359.78
2022-10-23T10:56:16.222Z,100348.06
2022-10-23T10:58:45.283Z,100335.34
2022-10-23T11:01:14.919Z,100328.75
2022-10-23T11:03:42.662Z,100293.84
2022-10-23T11:06:10.926Z,100302.44
2022-10-23T11:08:49.950Z,100297.25
2022-10-23T11:11:27.939Z,100299.75
2022-10-23T11:13:55.410Z,100305.22
2022-10-23T11:16:24.573Z,100302.06
2022-10-23T11:18:54.754Z,100300.03
2022-10-23T11:21:25.813Z,100297.16
2022-10-23T11:24:12.073Z,100281.41
2022-10-23T11:26:44.400Z,100279.28
2022-10-23T11:29:29.845Z,100272.34
2022-10-23T11:32:01.661Z,100261.50
2022-10-23T11:34:36.479Z,100238.56
2022-10-23T11:37:04.779Z,100256.75
2022-10-23T11:39:32.737Z,100238.22
2022-10-23T11:42:13.217Z,100234.16
2022-10-23T11:44:42.070Z,100212.00
2022-10-23T11:47:24.414Z,100219.19
2022-10-23T11:49:51.938Z,100208.66
2022-10-23T11:52:23.426Z,100199.72
2022-10-23T11:55:01.332Z,100203.78
2022-10-23T11:59:58.582Z,100212.63
2022-10-23T12:02:31.928Z,100207.63
2022-10-23T12:04:59.748Z,100193.44
2022-10-23T12:07:27.882Z,100177.19
2022-10-23T12:09:55.840Z,100178.25
2022-10-23T12:12:32.112Z,100183.75
2022-10-23T12:15:23.549Z,100175.72
2022-10-23T12:17:52.614Z,100176.16
2022-10-23T12:20:30.808Z,100172.88
2022-10-23T12:23:13.850Z,100157.16
2022-10-23T12:25:42.653Z,100162.19
2022-10-23T12:28:12.218Z,100153.13
2022-10-23T12:30:41.261Z,100145.13
2022-10-23T12:33:16.481Z,100137.50
2022-10-23T12:36:07.769Z,100134.69
2022-10-23T12:38:40.184Z,100131.09
2022-10-23T12:41:11.023Z,100124.38
2022-10-23T12:43:40.564Z,100114.75
2022-10-23T12:46:17.893Z,100099.31
2022-10-23T12:48:48.712Z,100087.34
2022-10-23T12:51:17.742Z,100097.81
2022-10-23T12:53:45.254Z,100098.66
2022-10-23T12:56:12.768Z,100081.44
2022-10-23T12:58:41.582Z,100077.78
2022-10-23T13:01:22.984Z,100064.91
2022-10-23T13:03:50.540Z,100071.81
2022-10-23T13:06:18.004Z,100064.97
2022-10-23T13:08:45.886Z,100041.41
2022-10-23T13:11:13.394Z,100042.94
2022-10-23T13:13:42.234Z,100034.66
2022-10-23T13:16:14.631Z,100035.38
2022-10-23T13:18:42.401Z,100028.47
2022-10-23T13:21:12.180Z,100043.16
2022-10-23T13:23:41.824Z,100037.13
2022-10-23T13:26:25.100Z,100026.13
2022-10-23T13:28:53.897Z,100027.25
2022-10-23T13:31:31.941Z,100028.28
2022-10-23T13:34:16.174Z,100055.41
2022-10-23T13:36:53.448Z,100047.38
2022-10-23T13:39:23.662Z,100039.50
2022-10-23T13:41:51.093Z,100038.00
2022-10-23T13:44:20.503Z,100023.19
2022-10-23T13:46:48.374Z,100033.03
2022-10-23T13:49:16.040Z,100014.13
2022-10-23T13:51:43.885Z,100021.56
2022-10-23T13:54:15.543Z,100018.13
2022-10-23T13:56:43.089Z,100010.25
2022-10-23T13:59:11.347Z,99997.44
2022-10-23T14:01:40.361Z,100005.19
2022-10-23T14:04:08.191Z,99988.00
2022-10-23T14:06:37.431Z,99999.03
2022-10-23T14:09:05.568Z,99989.75
2022-10-23T14:11:33.356Z,99981.88
2022-10-23T14:14:00.828Z,99989.31
2022-10-23T14:16:28.291Z,99998.25
2022-10-23T14:18:57.303Z,99991.88
2022-10-23T14:21:24.853Z,99986.19
2022-10-23T14:23:52.866Z,99965.56
2022-10-23T14:26:22.172Z,99976.13
2022-10-23T14:28:49.650Z,99951.28
2022-10-23T14:31:17.645Z,99949.19
2022-10-23T14:33:45.470Z,99943.50
2022-10-23T14:36:14.335Z,99936.25
2022-10-23T14:38:41.793Z,99929.06
2022-10-23T14:41:12.682Z,99940.25
2022-10-23T14:43:40.211Z,99928.00
2022-10-23T14:46:14.445Z,99917.38
2022-10-23T14:48:45.475Z,99914.44
2022-10-23T14:51:20.138Z,99911.09
2022-10-23T14:53:47.608Z,99906.56
2022-10-23T14:56:15.078Z,99907.59
2022-10-23T14:58:43.316Z,99902.88
2022-10-23T15:01:11.521Z,99887.94
2022-10-23T15:03:39.174Z,99892.97
2022-10-23T15:06:07.016Z,99896.53
2022-10-23T15:08:35.913Z,99898.09
2022-10-23T15:11:04.851Z,99890.50
2022-10-23T15:13:34.162Z,99883.75
2022-10-23T15:16:05.615Z,99875.44
2022-10-23T15:18:33.215Z,99870.63
2022-10-23T15:21:00.809Z,99868.84
2022-10-23T15:23:28.249Z,99869.50
2022-10-23T15:25:57.813Z,99867.44
2022-10-23T15:28:25.345Z,99855.41
2022-10-23T15:30:52.801Z,99864.38
2022-10-23T15:33:20.232Z,99856.22
2022-10-23T15:35:47.725Z,99859.34
2022-10-23T15:38:15.206Z,99843.75
2022-10-23T15:40:42.925Z,99845.19
2022-10-23T15:43:13.105Z,99835.88
2022-10-23T15:45:40.877Z,99847.16
2022-10-23T15:48:08.631Z,99840.69
2022-10-23T15:50:36.288Z,99835.94
2022-10-23T15:53:03.892Z,99825.78
2022-10-23T15:55:31.342Z,99829.25
2022-10-23T15:58:03.999Z,99827.78
2022-10-23T16:00:35.939Z,99833.03
2022-10-23T16:03:04.207Z,99811.28
2022-10-23T16:05:31.642Z,99823.63
2022-10-23T16:07:59.249Z,99825.59
2022-10-23T16:10:26.732Z,99826.03
2022-10-23T16:12:54.177Z,99837.94
2022-10-23T16:15:21.678Z,99834.94
2022-10-23T16:17:50.618Z,99830.88
2022-10-23T16:20:18.230Z,99820.47
2022-10-23T16:22:45.681Z,99830.50
2022-10-23T16:25:13.112Z,99831.25
2022-10-23T16:27:40.738Z,99832.41
2022-10-23T16:30:09.320Z,99823.81
2022-10-23T16:32:37.194Z,99826.16
2022-10-23T16:35:08.757Z,99834.16
2022-10-23T16:37:38.596Z,99833.22
2022-10-23T16:40:06.474Z,99835.75
2022-10-23T16:42:33.982Z,99826.03
2022-10-23T16:45:01.459Z,99824.78
2022-10-23T16:47:31.189Z,99818.88
2022-10-23T16:49:58.698Z,99820.06
2022-10-23T16:52:27.666Z,99816.09
2022-10-23T16:54:55.209Z,99813.03
2022-10-23T16:57:22.686Z,99812.47
2022-10-23T16:59:50.141Z,99802.13
2022-10-23T17:02:17.729Z,99791.94
2022-10-23T17:04:45.365Z,99794.94
2022-10-23T17:07:13.415Z,99781.72
2022-10-23T17:09:45.185Z,99770.38
2022-10-23T17:12:12.641Z,99757.16
2022-10-23T17:14:40.472Z,99760.56
2022-10-23T17:17:09.699Z,99752.28
2022-10-23T17:19:45.061Z,99750.00
2022-10-23T17:22:13.529Z,99732.09
2022-10-23T17:24:44.157Z,99728.09
2022-10-23T17:27:13.789Z,99739.81
2022-10-23T17:29:41.261Z,99745.06
2022-10-23T17:32:08.797Z,99719.91
2022-10-23T17:34:36.341Z,99726.47
2022-10-23T17:37:03.800Z,99761.69
2022-10-23T17:39:31.358Z,99792.19
2022-10-23T17:42:00.159Z,99790.88
2022-10-23T17:44:29.141Z,99778.06
2022-10-23T17:46:56.656Z,99784.56
2022-10-23T17:49:24.297Z,99783.75
2022-10-23T17:51:53.770Z,99788.16
2022-10-23T17:54:21.345Z,99776.38
2022-10-23T17:56:48.818Z,99769.06
2022-10-23T17:59:19.017Z,99778.09
2022-10-23T18:01:48.061Z,99798.03
2022-10-23T18:04:16.346Z,99795.44
2022-10-23T18:06:44.846Z,99812.59
2022-10-23T18:09:12.661Z,99812.59
2022-10-23T18:11:46.846Z,99801.22
2022-10-23T18:14:15.434Z,99809.44
2022-10-23T18:16:45.492Z,99803.25
2022-10-23T18:19:13.055Z,99792.53
2022-10-23T18:21:40.522Z,99782.81
2022-10-23T18:24:08.219Z,99788.19
2022-10-23T18:26:37.573Z,99775.28
2022-10-23T18:29:07.466Z,99775.94
2022-10-23T18:31:37.064Z,99777.13
2022-10-23T18:34:07.488Z,99777.78
2022-10-23T18:36:35.717Z,99766.94
2022-10-23T18:39:03.190Z,99766.75
2022-10-23T18:41:33.192Z,99760.75
2022-10-23T18:44:00.721Z,99752.50
2022-10-23T18:46:28.206Z,99742.44
2022-10-23T18:48:55.685Z,99754.09
2022-10-23T18:51:25.445Z,99744.44
2022-10-23T18:53:52.890Z,99759.63
2022-10-23T18:56:23.211Z,99768.72
2022-10-23T18:58:50.965Z,99761.34
2022-10-23T19:01:18.571Z,99763.25
2022-10-23T19:03:46.204Z,99756.94
2022-10-23T19:06:13.788Z,99758.50
2022-10-23T19:08:43.000Z,99758.81
2022-10-23T19:11:10.770Z,99768.53
2022-10-23T19:13:39.484Z,99764.03
2022-10-23T19:16:08.328Z,99748.97
2022-10-23T19:18:35.773Z,99742.63
2022-10-23T19:21:05.408Z,99739.63
2022-10-23T19:23:32.873Z,99727.94
2022-10-23T19:26:02.654Z,99738.28
2022-10-23T19:28:33.003Z,99724.28
2022-10-23T19:31:02.797Z,99726.94
2022-10-23T19:33:30.266Z,99722.25
2022-10-23T19:36:00.233Z,99723.75
2022-10-23T19:38:29.785Z,99721.94
2022-10-23T19:40:57.251Z,99716.22
2022-10-23T19:43:26.061Z,99715.56
2022-10-23T19:45:53.526Z,99708.03
2022-10-23T19:48:20.965Z,99712.41
2022-10-23T19:50:48.429Z,99700.69
2022-10-23T19:53:16.842Z,99715.91
2022-10-23T19:55:44.289Z,99704.53
2022-10-23T19:58:11.725Z,99695.22
2022-10-23T20:00:40.602Z,99707.19
2022-10-23T20:03:08.102Z,99712.50
2022-10-23T20:05:35.552Z,99725.91
2022-10-23T20:08:03.245Z,99726.25
2022-10-23T20:10:30.910Z,99719.75
2022-10-23T20:13:18.307Z,99724.25
2022-10-23T20:15:47.576Z,99723.50
2022-10-23T20:18:15.216Z,99731.19
2022-10-23T20:20:43.643Z,99737.59
2022-10-23T20:23:11.309Z,99748.75
2022-10-23T20:25:38.985Z,99770.50
2022-10-23T20:28:09.071Z,99773.66
2022-10-23T20:30:41.764Z,99781.25
2022-10-23T20:33:10.879Z,99786.09
2022-10-23T20:35:39.654Z,99786.41
2022-10-23T20:38:07.450Z,99795.34
2022-10-23T20:40:35.160Z,99791.81
2022-10-23T20:43:02.818Z,99766.38
2022-10-23T20:45:30.632Z,99780.25
2022-10-23T20:47:58.326Z,99781.69
2022-10-23T20:50:27.519Z,99777.50
2022-10-23T20:52:54.953Z,99776.03
2022-10-23T20:55:22.418Z,99778.19
2022-10-23T20:57:49.873Z,99783.84
2022-10-23T21:00:17.447Z,99781.97
2022-10-23T21:02:47.238Z,99778.13
2022-10-23T21:05:17.445Z,99758.13
2022-10-23T21:07:46.273Z,99767.63
2022-10-23T21:10:13.791Z,99766.91
2022-10-23T21:12:41.378Z,99772.81
2022-10-23T21:15:09.995Z,99773.28
2022-10-23T21:17:40.440Z,99763.56
2022-10-23T21:20:08.104Z,99764.31
2022-10-23T21:22:35.572Z,99754.44
2022-10-23T21:25:04.578Z,99757.63
2022-10-23T21:27:32.031Z,99756.59
2022-10-23T21:29:59.521Z,99766.63
2022-10-23T21:32:26.974Z,99754.91
2022-10-23T21:34:55.083Z,99767.75
2022-10-23T21:37:24.918Z,99782.84
2022-10-23T21:39:52.407Z,99769.97
2022-10-23T21:42:21.316Z,99786.31
2022-10-23T21:44:48.797Z,99774.56
2022-10-23T21:47:16.302Z,99777.22
2022-10-23T21:49:44.097Z,99774.78
2022-10-23T21:52:13.141Z,99771.28
2022-10-23T21:54:42.580Z,99770.63
2022-10-23T21:57:13.069Z,99761.91
2022-10-23T21:59:41.907Z,99779.47
2022-10-23T22:02:10.199Z,99788.00
2022-10-23T22:04:38.878Z,99774.38
2022-10-23T22:07:06.363Z,99759.09
2022-10-23T22:09:34.281Z,99771.75
2022-10-23T22:12:02.218Z,99771.41
2022-10-23T22:14:29.679Z,99768.91
2022-10-23T22:16:58.582Z,99775.38
2022-10-23T22:19:26.502Z,99762.16
2022-10-23T22:21:53.958Z,99781.09
2022-10-23T22:24:21.520Z,99775.72
2022-10-23T22:26:49.900Z,99782.97
2022-10-23T22:29:18.081Z,99776.09
2022-10-23T22:31:49.679Z,99771.25
2022-10-23T22:34:27.038Z,99763.94
2022-10-23T22:37:01.542Z,99773.72
2022-10-23T22:39:29.066Z,99768.34
2022-10-23T22:41:57.061Z,99781.16
2022-10-23T22:44:24.496Z,99774.09
2022-10-23T22:46:51.955Z,99780.63
2022-10-23T22:49:20.764Z,99786.75
2022-10-23T22:51:48.298Z,99779.69
2022-10-23T22:54:15.740Z,99792.50
2022-10-23T22:56:43.442Z,99799.91
2022-10-23T22:59:11.021Z,99803.28
2022-10-23T23:01:39.165Z,99802.06
2022-10-23T23:04:19.760Z,99821.75
2022-10-23T23:06:55.833Z,99813.63
2022-10-23T23:09:23.273Z,99820.28
2022-10-23T23:11:52.610Z,99823.25
2022-10-23T23:14:23.394Z,99849.00
2022-10-23T23:16:51.965Z,99872.88
2022-10-23T23:19:19.438Z,99855.44
2022-10-23T23:21:46.890Z,99852.91
2022-10-23T23:24:15.705Z,99861.91
2022-10-23T23:26:43.162Z,99860.53
2022-10-23T23:29:10.614Z,99879.97
2022-10-23T23:31:38.102Z,99864.78
2022-10-23T23:34:05.558Z,99865.09
2022-10-23T23:36:33.844Z,99851.28
2022-10-23T23:39:01.403Z,99861.19
2022-10-23T23:41:30.410Z,99852.06
2022-10-23T23:43:58.314Z,99839.94
2022-10-23T23:46:25.866Z,99821.91
2022-10-23T23:48:53.316Z,99812.59
2022-10-23T23:51:21.315Z,99786.28
2022-10-23T23:53:48.772Z,99803.59
2022-10-23T23:56:16.369Z,99785.75
2022-10-23T23:58:45.231Z,99795.06
